Arenas Valley, New Mexico
Current Conditions -  °F | °C
As of 3:15 PM on Friday 24 Oct 2014 (Local Time) from KSVC Reporting Station
Clear Clear  
Wind Chill: 77°   Ceiling: Unl
Heat Index: 77°   Visibility: 10mi
Dew Point: 37°   Wind: 8mph
Humidity: 24%   Direction: 180°S
Pressure: 30.27"   Gusts: NA
Location:  32.79°N, 108.18°W
Report Text: KSVC 242115Z AUTO 18007KT 10SM CLR 25/03 A3027 RMK AO2
Loading
Personal Weather Stations






























Interactive Weather Map
Tropical Storm Tracking
New forecast layout! Learn more

10-Day Weather Forecast

Advertisements
Track Severe Weather on mobile